sensor_id;sensor_type;location;lat;lon;timestamp;temperature;humidity
31695;DHT22;18289;51.330;4.946;2022-07-29T00:00:44;18.30;99.90
31695;DHT22;18289;51.330;4.946;2022-07-29T00:03:13;18.40;99.90
31695;DHT22;18289;51.330;4.946;2022-07-29T00:05:40;18.40;99.90
31695;DHT22;18289;51.330;4.946;2022-07-29T00:08:06;18.40;99.90
31695;DHT22;18289;51.330;4.946;2022-07-29T00:10:32;18.50;99.90
31695;DHT22;18289;51.330;4.946;2022-07-29T00:12:58;18.50;99.90
31695;DHT22;18289;51.330;4.946;2022-07-29T00:15:24;18.50;99.90
31695;DHT22;18289;51.330;4.946;2022-07-29T00:17:49;18.50;99.90
31695;DHT22;18289;51.330;4.946;2022-07-29T00:20:15;18.60;99.90
31695;DHT22;18289;51.330;4.946;2022-07-29T00:22:41;18.50;99.90
31695;DHT22;18289;51.330;4.946;2022-07-29T00:25:07;18.40;99.90
31695;DHT22;18289;51.330;4.946;2022-07-29T00:27:34;18.40;99.90
31695;DHT22;18289;51.330;4.946;2022-07-29T00:30:01;18.50;99.90
31695;DHT22;18289;51.330;4.946;2022-07-29T00:32:27;18.50;99.90
31695;DHT22;18289;51.330;4.946;2022-07-29T00:34:52;18.40;99.90
31695;DHT22;18289;51.330;4.946;2022-07-29T00:37:36;18.40;99.90
31695;DHT22;18289;51.330;4.946;2022-07-29T00:40:03;18.50;99.90
31695;DHT22;18289;51.330;4.946;2022-07-29T00:42:28;18.50;99.90
31695;DHT22;18289;51.330;4.946;2022-07-29T00:44:54;18.50;99.90
31695;DHT22;18289;51.330;4.946;2022-07-29T00:47:20;18.50;99.90
31695;DHT22;18289;51.330;4.946;2022-07-29T00:49:46;18.50;99.90
31695;DHT22;18289;51.330;4.946;2022-07-29T00:52:12;18.50;99.90
31695;DHT22;18289;51.330;4.946;2022-07-29T00:54:39;18.50;99.90
31695;DHT22;18289;51.330;4.946;2022-07-29T00:57:06;18.40;99.90
31695;DHT22;18289;51.330;4.946;2022-07-29T00:59:33;18.40;99.90
31695;DHT22;18289;51.330;4.946;2022-07-29T01:01:59;18.30;99.90
31695;DHT22;18289;51.330;4.946;2022-07-29T01:04:25;18.40;99.90
31695;DHT22;18289;51.330;4.946;2022-07-29T01:06:51;18.40;99.90
31695;DHT22;18289;51.330;4.946;2022-07-29T01:09:18;18.40;99.90
31695;DHT22;18289;51.330;4.946;2022-07-29T01:11:45;18.30;99.90
31695;DHT22;18289;51.330;4.946;2022-07-29T01:14:12;18.30;99.90
31695;DHT22;18289;51.330;4.946;2022-07-29T01:30:56;18.40;99.90
31695;DHT22;18289;51.330;4.946;2022-07-29T01:33:24;18.20;99.90
31695;DHT22;18289;51.330;4.946;2022-07-29T01:36:16;18.10;99.90
31695;DHT22;18289;51.330;4.946;2022-07-29T01:38:45;18.00;99.90
31695;DHT22;18289;51.330;4.946;2022-07-29T01:41:16;18.00;99.90
31695;DHT22;18289;51.330;4.946;2022-07-29T01:43:55;18.00;99.90
31695;DHT22;18289;51.330;4.946;2022-07-29T01:46:27;18.00;99.90
31695;DHT22;18289;51.330;4.946;2022-07-29T01:48:57;17.80;99.90
31695;DHT22;18289;51.330;4.946;2022-07-29T01:51:36;17.80;99.90
31695;DHT22;18289;51.330;4.946;2022-07-29T01:54:29;17.80;99.90
31695;DHT22;18289;51.330;4.946;2022-07-29T01:56:56;17.90;99.90
31695;DHT22;18289;51.330;4.946;2022-07-29T01:59:24;17.70;99.90
31695;DHT22;18289;51.330;4.946;2022-07-29T02:01:53;17.80;99.90
31695;DHT22;18289;51.330;4.946;2022-07-29T02:04:21;17.80;99.90
31695;DHT22;18289;51.330;4.946;2022-07-29T02:06:49;17.80;99.90
31695;DHT22;18289;51.330;4.946;2022-07-29T02:09:16;17.80;99.90
31695;DHT22;18289;51.330;4.946;2022-07-29T02:11:51;17.80;99.90
31695;DHT22;18289;51.330;4.946;2022-07-29T02:14:18;17.90;99.90
31695;DHT22;18289;51.330;4.946;2022-07-29T02:16:47;17.90;99.90
31695;DHT22;18289;51.330;4.946;2022-07-29T02:19:14;17.80;99.90
31695;DHT22;18289;51.330;4.946;2022-07-29T02:21:40;17.70;99.90
31695;DHT22;18289;51.330;4.946;2022-07-29T02:24:09;17.70;99.90
31695;DHT22;18289;51.330;4.946;2022-07-29T02:26:37;17.70;99.90
31695;DHT22;18289;51.330;4.946;2022-07-29T02:29:04;17.60;99.90
31695;DHT22;18289;51.330;4.946;2022-07-29T02:31:33;17.60;99.90
31695;DHT22;18289;51.330;4.946;2022-07-29T02:34:05;17.60;99.90
31695;DHT22;18289;51.330;4.946;2022-07-29T02:36:32;17.50;99.90
31695;DHT22;18289;51.330;4.946;2022-07-29T02:38:59;17.50;99.90
31695;DHT22;18289;51.330;4.946;2022-07-29T02:41:30;17.50;99.90
31695;DHT22;18289;51.330;4.946;2022-07-29T02:44:01;17.40;99.90
31695;DHT22;18289;51.330;4.946;2022-07-29T02:46:31;17.40;99.90
31695;DHT22;18289;51.330;4.946;2022-07-29T02:48:59;17.40;99.90
31695;DHT22;18289;51.330;4.946;2022-07-29T02:51:49;17.30;99.90
31695;DHT22;18289;51.330;4.946;2022-07-29T02:54:23;17.30;99.90
31695;DHT22;18289;51.330;4.946;2022-07-29T02:56:52;17.20;99.90
31695;DHT22;18289;51.330;4.946;2022-07-29T02:59:25;17.20;99.90
31695;DHT22;18289;51.330;4.946;2022-07-29T03:01:52;17.20;99.90
31695;DHT22;18289;51.330;4.946;2022-07-29T03:04:27;17.00;99.90
31695;DHT22;18289;51.330;4.946;2022-07-29T03:06:58;17.10;99.90
31695;DHT22;18289;51.330;4.946;2022-07-29T03:09:25;17.10;99.90
31695;DHT22;18289;51.330;4.946;2022-07-29T03:11:52;17.20;99.90
31695;DHT22;18289;51.330;4.946;2022-07-29T03:14:20;17.20;99.90
31695;DHT22;18289;51.330;4.946;2022-07-29T03:16:46;17.20;99.90
31695;DHT22;18289;51.330;4.946;2022-07-29T03:19:12;17.00;99.90
31695;DHT22;18289;51.330;4.946;2022-07-29T03:21:38;16.90;99.90
31695;DHT22;18289;51.330;4.946;2022-07-29T03:24:04;16.90;99.90
31695;DHT22;18289;51.330;4.946;2022-07-29T03:26:30;17.10;99.90
31695;DHT22;18289;51.330;4.946;2022-07-29T03:28:56;17.00;99.90
31695;DHT22;18289;51.330;4.946;2022-07-29T03:31:21;16.90;99.90
31695;DHT22;18289;51.330;4.946;2022-07-29T03:33:47;16.80;99.90
31695;DHT22;18289;51.330;4.946;2022-07-29T03:36:13;16.70;99.90
31695;DHT22;18289;51.330;4.946;2022-07-29T03:38:40;16.70;99.90
31695;DHT22;18289;51.330;4.946;2022-07-29T03:41:10;16.70;99.90
31695;DHT22;18289;51.330;4.946;2022-07-29T03:43:38;16.70;99.90
31695;DHT22;18289;51.330;4.946;2022-07-29T03:46:07;16.70;99.90
31695;DHT22;18289;51.330;4.946;2022-07-29T03:48:37;16.60;99.90
31695;DHT22;18289;51.330;4.946;2022-07-29T03:51:03;16.60;99.90
31695;DHT22;18289;51.330;4.946;2022-07-29T03:53:29;16.60;99.90
31695;DHT22;18289;51.330;4.946;2022-07-29T03:55:59;16.50;99.90
31695;DHT22;18289;51.330;4.946;2022-07-29T03:58:27;16.50;99.90
31695;DHT22;18289;51.330;4.946;2022-07-29T04:00:54;16.40;99.90
31695;DHT22;18289;51.330;4.946;2022-07-29T04:03:21;16.50;99.90
31695;DHT22;18289;51.330;4.946;2022-07-29T04:06:06;16.40;99.90
31695;DHT22;18289;51.330;4.946;2022-07-29T04:08:34;16.40;99.90
31695;DHT22;18289;51.330;4.946;2022-07-29T04:11:01;16.30;99.90
31695;DHT22;18289;51.330;4.946;2022-07-29T04:13:26;16.20;99.90
31695;DHT22;18289;51.330;4.946;2022-07-29T04:15:56;16.10;99.90
31695;DHT22;18289;51.330;4.946;2022-07-29T04:18:21;16.10;99.90
31695;DHT22;18289;51.330;4.946;2022-07-29T04:20:47;16.00;99.90
31695;DHT22;18289;51.330;4.946;2022-07-29T04:23:13;16.00;99.90
31695;DHT22;18289;51.330;4.946;2022-07-29T04:25:40;16.00;99.90
31695;DHT22;18289;51.330;4.946;2022-07-29T04:28:06;16.10;99.90
31695;DHT22;18289;51.330;4.946;2022-07-29T04:30:33;16.10;99.90
31695;DHT22;18289;51.330;4.946;2022-07-29T04:33:00;16.10;99.90
31695;DHT22;18289;51.330;4.946;2022-07-29T04:35:27;16.20;99.90
31695;DHT22;18289;51.330;4.946;2022-07-29T04:37:53;16.20;99.90
31695;DHT22;18289;51.330;4.946;2022-07-29T04:40:19;16.10;99.90
31695;DHT22;18289;51.330;4.946;2022-07-29T04:42:46;16.10;99.90
31695;DHT22;18289;51.330;4.946;2022-07-29T04:45:11;16.10;99.90
31695;DHT22;18289;51.330;4.946;2022-07-29T04:47:37;16.20;99.90
31695;DHT22;18289;51.330;4.946;2022-07-29T04:50:03;16.20;99.90
31695;DHT22;18289;51.330;4.946;2022-07-29T04:52:30;16.20;99.90
31695;DHT22;18289;51.330;4.946;2022-07-29T04:54:56;16.20;99.90
31695;DHT22;18289;51.330;4.946;2022-07-29T04:57:21;16.30;99.90
31695;DHT22;18289;51.330;4.946;2022-07-29T04:59:47;16.30;99.90
31695;DHT22;18289;51.330;4.946;2022-07-29T05:02:14;16.40;99.90
31695;DHT22;18289;51.330;4.946;2022-07-29T05:04:39;16.30;99.90
31695;DHT22;18289;51.330;4.946;2022-07-29T05:07:05;16.40;99.90
31695;DHT22;18289;51.330;4.946;2022-07-29T05:09:31;16.40;99.90
31695;DHT22;18289;51.330;4.946;2022-07-29T05:11:57;16.40;99.90
31695;DHT22;18289;51.330;4.946;2022-07-29T05:14:23;16.40;99.90
31695;DHT22;18289;51.330;4.946;2022-07-29T05:16:49;16.40;99.90
31695;DHT22;18289;51.330;4.946;2022-07-29T05:19:17;16.30;99.90
31695;DHT22;18289;51.330;4.946;2022-07-29T05:21:44;16.40;99.90
31695;DHT22;18289;51.330;4.946;2022-07-29T05:24:10;16.40;99.90
31695;DHT22;18289;51.330;4.946;2022-07-29T05:26:36;16.40;99.90
31695;DHT22;18289;51.330;4.946;2022-07-29T05:29:02;16.40;99.90
31695;DHT22;18289;51.330;4.946;2022-07-29T05:31:29;16.30;99.90
31695;DHT22;18289;51.330;4.946;2022-07-29T05:33:55;16.40;99.90
31695;DHT22;18289;51.330;4.946;2022-07-29T05:36:21;16.50;99.90
31695;DHT22;18289;51.330;4.946;2022-07-29T05:38:46;16.60;99.90
31695;DHT22;18289;51.330;4.946;2022-07-29T05:41:12;16.50;99.90
31695;DHT22;18289;51.330;4.946;2022-07-29T05:43:38;16.50;99.90
31695;DHT22;18289;51.330;4.946;2022-07-29T05:46:04;16.70;99.90
31695;DHT22;18289;51.330;4.946;2022-07-29T05:48:29;16.90;99.90
31695;DHT22;18289;51.330;4.946;2022-07-29T05:50:55;16.80;99.90
31695;DHT22;18289;51.330;4.946;2022-07-29T05:53:21;17.00;99.90
31695;DHT22;18289;51.330;4.946;2022-07-29T05:55:48;17.00;99.90
31695;DHT22;18289;51.330;4.946;2022-07-29T05:58:13;17.10;99.90
31695;DHT22;18289;51.330;4.946;2022-07-29T06:00:39;17.10;99.90
31695;DHT22;18289;51.330;4.946;2022-07-29T06:03:05;17.20;99.90
31695;DHT22;18289;51.330;4.946;2022-07-29T06:05:33;17.30;99.90
31695;DHT22;18289;51.330;4.946;2022-07-29T06:07:59;17.40;99.90
31695;DHT22;18289;51.330;4.946;2022-07-29T06:10:26;17.40;99.90
31695;DHT22;18289;51.330;4.946;2022-07-29T06:12:54;17.50;99.90
31695;DHT22;18289;51.330;4.946;2022-07-29T06:15:22;17.50;99.90
31695;DHT22;18289;51.330;4.946;2022-07-29T06:17:56;17.60;99.90
31695;DHT22;18289;51.330;4.946;2022-07-29T06:20:22;17.60;99.90
31695;DHT22;18289;51.330;4.946;2022-07-29T06:22:48;17.70;99.90
31695;DHT22;18289;51.330;4.946;2022-07-29T06:25:14;17.80;99.90
31695;DHT22;18289;51.330;4.946;2022-07-29T06:27:42;17.90;99.90
31695;DHT22;18289;51.330;4.946;2022-07-29T06:30:08;18.00;99.90
31695;DHT22;18289;51.330;4.946;2022-07-29T06:32:35;18.00;99.90
31695;DHT22;18289;51.330;4.946;2022-07-29T06:35:01;18.20;99.90
31695;DHT22;18289;51.330;4.946;2022-07-29T06:37:27;18.20;99.90
31695;DHT22;18289;51.330;4.946;2022-07-29T06:39:55;18.30;99.90
31695;DHT22;18289;51.330;4.946;2022-07-29T06:42:43;18.40;99.90
31695;DHT22;18289;51.330;4.946;2022-07-29T06:45:10;18.60;99.90
31695;DHT22;18289;51.330;4.946;2022-07-29T06:47:36;18.60;99.90
31695;DHT22;18289;51.330;4.946;2022-07-29T06:50:02;18.70;99.90
31695;DHT22;18289;51.330;4.946;2022-07-29T06:52:28;18.80;99.90
31695;DHT22;18289;51.330;4.946;2022-07-29T06:54:57;18.90;99.90
31695;DHT22;18289;51.330;4.946;2022-07-29T06:57:23;19.00;99.90
31695;DHT22;18289;51.330;4.946;2022-07-29T06:59:49;18.90;99.90
31695;DHT22;18289;51.330;4.946;2022-07-29T07:02:14;18.90;99.90
31695;DHT22;18289;51.330;4.946;2022-07-29T07:04:40;19.00;99.90
31695;DHT22;18289;51.330;4.946;2022-07-29T07:07:06;19.20;99.90
31695;DHT22;18289;51.330;4.946;2022-07-29T07:09:35;19.30;99.90
31695;DHT22;18289;51.330;4.946;2022-07-29T07:12:00;19.50;99.90
31695;DHT22;18289;51.330;4.946;2022-07-29T07:14:26;19.40;99.90
31695;DHT22;18289;51.330;4.946;2022-07-29T07:16:53;19.20;99.90
31695;DHT22;18289;51.330;4.946;2022-07-29T07:19:19;19.10;99.90
31695;DHT22;18289;51.330;4.946;2022-07-29T07:21:45;19.30;99.90
31695;DHT22;18289;51.330;4.946;2022-07-29T07:24:27;19.40;99.90
31695;DHT22;18289;51.330;4.946;2022-07-29T07:26:54;19.50;99.90
31695;DHT22;18289;51.330;4.946;2022-07-29T07:29:20;19.50;99.90
31695;DHT22;18289;51.330;4.946;2022-07-29T07:31:46;19.40;99.90
31695;DHT22;18289;51.330;4.946;2022-07-29T07:34:28;19.30;99.90
31695;DHT22;18289;51.330;4.946;2022-07-29T07:36:56;19.30;99.90
31695;DHT22;18289;51.330;4.946;2022-07-29T07:39:22;19.40;99.90
31695;DHT22;18289;51.330;4.946;2022-07-29T07:41:47;19.30;99.90
31695;DHT22;18289;51.330;4.946;2022-07-29T07:44:24;19.40;99.90
31695;DHT22;18289;51.330;4.946;2022-07-29T07:46:54;19.50;99.90
31695;DHT22;18289;51.330;4.946;2022-07-29T07:49:19;19.60;99.90
31695;DHT22;18289;51.330;4.946;2022-07-29T07:51:45;19.70;99.90
31695;DHT22;18289;51.330;4.946;2022-07-29T07:54:18;19.90;99.90
31695;DHT22;18289;51.330;4.946;2022-07-29T07:56:43;20.00;99.90
31695;DHT22;18289;51.330;4.946;2022-07-29T07:59:09;20.10;99.90
31695;DHT22;18289;51.330;4.946;2022-07-29T08:01:35;20.10;99.90
31695;DHT22;18289;51.330;4.946;2022-07-29T08:04:00;20.30;99.90
31695;DHT22;18289;51.330;4.946;2022-07-29T08:06:27;20.40;99.90
31695;DHT22;18289;51.330;4.946;2022-07-29T08:08:55;20.50;99.90
31695;DHT22;18289;51.330;4.946;2022-07-29T08:11:20;20.60;99.90
31695;DHT22;18289;51.330;4.946;2022-07-29T08:13:46;20.60;99.90
31695;DHT22;18289;51.330;4.946;2022-07-29T08:16:12;20.60;99.90
31695;DHT22;18289;51.330;4.946;2022-07-29T08:18:43;20.60;99.90
31695;DHT22;18289;51.330;4.946;2022-07-29T08:21:09;20.60;99.90
31695;DHT22;18289;51.330;4.946;2022-07-29T08:23:35;20.70;99.90
31695;DHT22;18289;51.330;4.946;2022-07-29T08:26:07;20.70;99.90
31695;DHT22;18289;51.330;4.946;2022-07-29T08:28:40;20.90;99.90
31695;DHT22;18289;51.330;4.946;2022-07-29T08:31:07;21.10;99.90
31695;DHT22;18289;51.330;4.946;2022-07-29T08:33:47;21.20;99.90
31695;DHT22;18289;51.330;4.946;2022-07-29T08:36:13;21.30;99.90
31695;DHT22;18289;51.330;4.946;2022-07-29T08:38:38;21.50;99.90
31695;DHT22;18289;51.330;4.946;2022-07-29T08:41:05;21.50;99.90
31695;DHT22;18289;51.330;4.946;2022-07-29T08:43:33;21.40;99.90
31695;DHT22;18289;51.330;4.946;2022-07-29T08:46:02;21.60;99.90
31695;DHT22;18289;51.330;4.946;2022-07-29T08:48:28;21.70;99.90
31695;DHT22;18289;51.330;4.946;2022-07-29T08:50:55;21.80;99.90
31695;DHT22;18289;51.330;4.946;2022-07-29T08:53:24;21.80;99.90
31695;DHT22;18289;51.330;4.946;2022-07-29T08:55:52;22.10;99.90
31695;DHT22;18289;51.330;4.946;2022-07-29T08:58:18;22.20;99.90
31695;DHT22;18289;51.330;4.946;2022-07-29T09:00:51;22.20;99.90
31695;DHT22;18289;51.330;4.946;2022-07-29T09:03:23;22.20;99.90
31695;DHT22;18289;51.330;4.946;2022-07-29T09:05:50;22.20;99.90
31695;DHT22;18289;51.330;4.946;2022-07-29T09:08:17;22.50;99.90
31695;DHT22;18289;51.330;4.946;2022-07-29T09:10:44;22.60;99.90
31695;DHT22;18289;51.330;4.946;2022-07-29T09:13:12;22.60;99.90
31695;DHT22;18289;51.330;4.946;2022-07-29T09:15:38;22.70;99.90
31695;DHT22;18289;51.330;4.946;2022-07-29T09:18:03;22.80;99.90
31695;DHT22;18289;51.330;4.946;2022-07-29T09:20:29;22.90;99.90
31695;DHT22;18289;51.330;4.946;2022-07-29T09:23:15;23.00;99.90
31695;DHT22;18289;51.330;4.946;2022-07-29T09:25:41;23.10;99.90
31695;DHT22;18289;51.330;4.946;2022-07-29T09:28:16;23.20;99.90
31695;DHT22;18289;51.330;4.946;2022-07-29T09:31:00;23.30;99.90
31695;DHT22;18289;51.330;4.946;2022-07-29T09:33:44;23.40;99.90
31695;DHT22;18289;51.330;4.946;2022-07-29T09:36:10;23.40;99.90
31695;DHT22;18289;51.330;4.946;2022-07-29T09:38:36;23.50;99.90
31695;DHT22;18289;51.330;4.946;2022-07-29T09:41:05;23.50;99.90
31695;DHT22;18289;51.330;4.946;2022-07-29T09:43:31;23.60;99.90
31695;DHT22;18289;51.330;4.946;2022-07-29T09:46:16;23.70;99.90
31695;DHT22;18289;51.330;4.946;2022-07-29T09:48:41;24.00;99.90
31695;DHT22;18289;51.330;4.946;2022-07-29T09:51:19;24.20;99.90
31695;DHT22;18289;51.330;4.946;2022-07-29T09:53:45;24.60;99.90
31695;DHT22;18289;51.330;4.946;2022-07-29T09:56:11;25.30;99.90
31695;DHT22;18289;51.330;4.946;2022-07-29T09:58:36;26.30;99.60
31695;DHT22;18289;51.330;4.946;2022-07-29T10:01:07;27.30;98.20
31695;DHT22;18289;51.330;4.946;2022-07-29T10:03:32;28.50;95.80
31695;DHT22;18289;51.330;4.946;2022-07-29T10:06:16;29.90;93.10
31695;DHT22;18289;51.330;4.946;2022-07-29T10:08:42;30.90;91.70
31695;DHT22;18289;51.330;4.946;2022-07-29T10:11:17;31.40;88.00
31695;DHT22;18289;51.330;4.946;2022-07-29T10:13:44;32.60;84.50
31695;DHT22;18289;51.330;4.946;2022-07-29T10:16:10;32.90;82.30
31695;DHT22;18289;51.330;4.946;2022-07-29T10:18:38;33.90;81.20
31695;DHT22;18289;51.330;4.946;2022-07-29T10:21:04;34.50;76.30
31695;DHT22;18289;51.330;4.946;2022-07-29T10:23:31;35.10;75.10
31695;DHT22;18289;51.330;4.946;2022-07-29T10:25:57;35.50;68.00
31695;DHT22;18289;51.330;4.946;2022-07-29T10:28:23;35.40;64.20
31695;DHT22;18289;51.330;4.946;2022-07-29T10:31:06;35.50;65.00
31695;DHT22;18289;51.330;4.946;2022-07-29T10:33:51;35.70;61.70
31695;DHT22;18289;51.330;4.946;2022-07-29T10:36:41;35.60;61.20
31695;DHT22;18289;51.330;4.946;2022-07-29T10:44:43;34.10;61.90
31695;DHT22;18289;51.330;4.946;2022-07-29T10:47:36;32.80;62.30
31695;DHT22;18289;51.330;4.946;2022-07-29T10:50:04;32.10;64.30
31695;DHT22;18289;51.330;4.946;2022-07-29T10:55:34;32.40;62.90
31695;DHT22;18289;51.330;4.946;2022-07-29T10:58:16;32.90;64.60
31695;DHT22;18289;51.330;4.946;2022-07-29T11:00:44;34.10;64.70
31695;DHT22;18289;51.330;4.946;2022-07-29T11:03:43;34.30;61.00
31695;DHT22;18289;51.330;4.946;2022-07-29T11:06:17;35.10;62.10
31695;DHT22;18289;51.330;4.946;2022-07-29T11:09:17;35.50;59.60
31695;DHT22;18289;51.330;4.946;2022-07-29T11:11:44;34.70;59.80
31695;DHT22;18289;51.330;4.946;2022-07-29T11:14:10;33.60;61.50
31695;DHT22;18289;51.330;4.946;2022-07-29T11:16:59;33.10;62.00
31695;DHT22;18289;51.330;4.946;2022-07-29T11:19:38;34.10;61.70
31695;DHT22;18289;51.330;4.946;2022-07-29T11:22:08;34.90;60.90
31695;DHT22;18289;51.330;4.946;2022-07-29T11:24:34;35.20;61.80
31695;DHT22;18289;51.330;4.946;2022-07-29T11:27:20;34.70;58.90
31695;DHT22;18289;51.330;4.946;2022-07-29T11:29:55;33.50;60.30
31695;DHT22;18289;51.330;4.946;2022-07-29T11:32:25;31.80;61.80
31695;DHT22;18289;51.330;4.946;2022-07-29T11:35:20;30.60;64.40
31695;DHT22;18289;51.330;4.946;2022-07-29T11:38:27;29.70;66.30
31695;DHT22;18289;51.330;4.946;2022-07-29T11:41:23;29.40;67.60
31695;DHT22;18289;51.330;4.946;2022-07-29T11:44:08;28.90;68.80
31695;DHT22;18289;51.330;4.946;2022-07-29T11:47:03;28.20;70.10
31695;DHT22;18289;51.330;4.946;2022-07-29T11:49:30;27.90;69.30
31695;DHT22;18289;51.330;4.946;2022-07-29T11:51:58;27.60;70.20
31695;DHT22;18289;51.330;4.946;2022-07-29T11:54:33;27.60;72.10
31695;DHT22;18289;51.330;4.946;2022-07-29T11:56:59;27.40;68.20
31695;DHT22;18289;51.330;4.946;2022-07-29T11:59:45;27.40;67.90
31695;DHT22;18289;51.330;4.946;2022-07-29T12:02:14;27.10;68.50
31695;DHT22;18289;51.330;4.946;2022-07-29T12:04:54;27.00;71.50
31695;DHT22;18289;51.330;4.946;2022-07-29T12:07:33;27.10;68.70
31695;DHT22;18289;51.330;4.946;2022-07-29T12:10:00;27.30;69.10
31695;DHT22;18289;51.330;4.946;2022-07-29T12:12:26;27.30;69.30
31695;DHT22;18289;51.330;4.946;2022-07-29T12:15:09;27.40;71.00
31695;DHT22;18289;51.330;4.946;2022-07-29T12:17:35;27.40;71.90
31695;DHT22;18289;51.330;4.946;2022-07-29T12:20:04;27.50;72.70
31695;DHT22;18289;51.330;4.946;2022-07-29T12:22:33;27.80;73.20
31695;DHT22;18289;51.330;4.946;2022-07-29T12:25:07;28.20;70.30
31695;DHT22;18289;51.330;4.946;2022-07-29T12:27:36;28.10;69.40
31695;DHT22;18289;51.330;4.946;2022-07-29T12:30:07;28.30;69.30
31695;DHT22;18289;51.330;4.946;2022-07-29T12:32:37;28.60;69.50
31695;DHT22;18289;51.330;4.946;2022-07-29T12:37:36;29.20;69.20
31695;DHT22;18289;51.330;4.946;2022-07-29T12:40:03;29.50;68.70
31695;DHT22;18289;51.330;4.946;2022-07-29T12:42:29;29.60;66.10
31695;DHT22;18289;51.330;4.946;2022-07-29T12:44:55;30.10;65.10
31695;DHT22;18289;51.330;4.946;2022-07-29T12:47:22;30.20;68.40
31695;DHT22;18289;51.330;4.946;2022-07-29T12:49:50;30.60;69.60
31695;DHT22;18289;51.330;4.946;2022-07-29T12:52:27;31.50;67.30
31695;DHT22;18289;51.330;4.946;2022-07-29T12:54:55;32.40;64.50
31695;DHT22;18289;51.330;4.946;2022-07-29T12:57:23;32.80;63.10
31695;DHT22;18289;51.330;4.946;2022-07-29T13:00:10;34.40;61.10
31695;DHT22;18289;51.330;4.946;2022-07-29T13:02:38;35.40;57.80
31695;DHT22;18289;51.330;4.946;2022-07-29T13:05:05;35.30;59.30
31695;DHT22;18289;51.330;4.946;2022-07-29T13:07:35;35.50;57.50
31695;DHT22;18289;51.330;4.946;2022-07-29T13:10:17;36.70;58.60
31695;DHT22;18289;51.330;4.946;2022-07-29T13:15:28;39.30;52.80
31695;DHT22;18289;51.330;4.946;2022-07-29T13:17:54;39.80;53.80
31695;DHT22;18289;51.330;4.946;2022-07-29T13:20:24;40.80;52.30
31695;DHT22;18289;51.330;4.946;2022-07-29T13:22:50;41.60;49.60
31695;DHT22;18289;51.330;4.946;2022-07-29T13:25:25;42.10;48.40
31695;DHT22;18289;51.330;4.946;2022-07-29T13:27:50;41.30;47.70
31695;DHT22;18289;51.330;4.946;2022-07-29T13:30:16;41.90;46.40
31695;DHT22;18289;51.330;4.946;2022-07-29T13:32:42;41.90;47.50
31695;DHT22;18289;51.330;4.946;2022-07-29T13:35:08;41.20;46.30
31695;DHT22;18289;51.330;4.946;2022-07-29T13:37:35;41.20;47.10
31695;DHT22;18289;51.330;4.946;2022-07-29T13:40:04;41.10;45.90
31695;DHT22;18289;51.330;4.946;2022-07-29T13:42:31;39.40;48.20
31695;DHT22;18289;51.330;4.946;2022-07-29T13:44:57;38.10;47.70
31695;DHT22;18289;51.330;4.946;2022-07-29T13:47:24;36.50;49.20
31695;DHT22;18289;51.330;4.946;2022-07-29T13:49:50;35.60;50.70
31695;DHT22;18289;51.330;4.946;2022-07-29T13:52:16;36.60;49.80
31695;DHT22;18289;51.330;4.946;2022-07-29T13:54:42;37.70;48.30
31695;DHT22;18289;51.330;4.946;2022-07-29T13:57:09;38.20;49.80
31695;DHT22;18289;51.330;4.946;2022-07-29T13:59:36;39.10;47.60
31695;DHT22;18289;51.330;4.946;2022-07-29T14:02:02;40.00;48.10
31695;DHT22;18289;51.330;4.946;2022-07-29T14:04:28;40.90;45.90
31695;DHT22;18289;51.330;4.946;2022-07-29T14:06:53;41.30;44.00
31695;DHT22;18289;51.330;4.946;2022-07-29T14:09:19;40.90;43.70
31695;DHT22;18289;51.330;4.946;2022-07-29T14:11:45;39.60;46.40
31695;DHT22;18289;51.330;4.946;2022-07-29T14:14:11;38.00;46.30
31695;DHT22;18289;51.330;4.946;2022-07-29T14:16:37;37.20;50.90
31695;DHT22;18289;51.330;4.946;2022-07-29T14:19:02;38.00;48.10
31695;DHT22;18289;51.330;4.946;2022-07-29T14:21:32;39.30;48.60
31695;DHT22;18289;51.330;4.946;2022-07-29T14:23:57;40.10;46.10
31695;DHT22;18289;51.330;4.946;2022-07-29T14:26:23;41.10;44.60
31695;DHT22;18289;51.330;4.946;2022-07-29T14:28:49;41.60;46.00
31695;DHT22;18289;51.330;4.946;2022-07-29T14:31:16;41.40;43.80
31695;DHT22;18289;51.330;4.946;2022-07-29T14:33:42;41.40;42.80
31695;DHT22;18289;51.330;4.946;2022-07-29T14:36:15;41.10;43.20
31695;DHT22;18289;51.330;4.946;2022-07-29T14:38:49;40.80;43.00
31695;DHT22;18289;51.330;4.946;2022-07-29T14:41:16;40.70;44.60
31695;DHT22;18289;51.330;4.946;2022-07-29T14:43:48;41.10;44.20
31695;DHT22;18289;51.330;4.946;2022-07-29T14:46:17;41.20;42.80
31695;DHT22;18289;51.330;4.946;2022-07-29T14:48:45;40.60;43.50
31695;DHT22;18289;51.330;4.946;2022-07-29T14:51:11;40.30;44.10
31695;DHT22;18289;51.330;4.946;2022-07-29T14:53:39;40.60;44.30
31695;DHT22;18289;51.330;4.946;2022-07-29T14:56:07;40.80;44.20
31695;DHT22;18289;51.330;4.946;2022-07-29T14:58:33;40.60;42.50
31695;DHT22;18289;51.330;4.946;2022-07-29T15:01:00;38.60;43.60
31695;DHT22;18289;51.330;4.946;2022-07-29T15:03:26;37.30;47.50
31695;DHT22;18289;51.330;4.946;2022-07-29T15:05:55;37.20;47.20
31695;DHT22;18289;51.330;4.946;2022-07-29T15:08:21;37.40;46.50
31695;DHT22;18289;51.330;4.946;2022-07-29T15:10:47;38.00;46.60
31695;DHT22;18289;51.330;4.946;2022-07-29T15:13:12;38.30;46.10
31695;DHT22;18289;51.330;4.946;2022-07-29T15:15:52;37.90;45.60
31695;DHT22;18289;51.330;4.946;2022-07-29T15:18:18;38.60;46.90
31695;DHT22;18289;51.330;4.946;2022-07-29T15:20:44;38.40;45.30
31695;DHT22;18289;51.330;4.946;2022-07-29T15:23:12;38.80;45.30
31695;DHT22;18289;51.330;4.946;2022-07-29T15:25:52;39.00;44.60
31695;DHT22;18289;51.330;4.946;2022-07-29T15:28:18;39.20;43.50
31695;DHT22;18289;51.330;4.946;2022-07-29T15:30:44;39.10;44.10
31695;DHT22;18289;51.330;4.946;2022-07-29T15:33:10;39.10;44.00
31695;DHT22;18289;51.330;4.946;2022-07-29T15:35:48;38.60;44.60
31695;DHT22;18289;51.330;4.946;2022-07-29T15:38:13;39.10;44.10
31695;DHT22;18289;51.330;4.946;2022-07-29T15:40:40;38.40;44.70
31695;DHT22;18289;51.330;4.946;2022-07-29T15:43:08;37.90;44.30
31695;DHT22;18289;51.330;4.946;2022-07-29T15:45:38;38.50;44.70
31695;DHT22;18289;51.330;4.946;2022-07-29T15:48:05;37.80;45.50
31695;DHT22;18289;51.330;4.946;2022-07-29T15:50:32;35.30;47.10
31695;DHT22;18289;51.330;4.946;2022-07-29T15:52:58;33.90;50.00
31695;DHT22;18289;51.330;4.946;2022-07-29T15:55:24;33.50;50.20
31695;DHT22;18289;51.330;4.946;2022-07-29T15:57:49;34.00;50.00
31695;DHT22;18289;51.330;4.946;2022-07-29T16:00:15;34.00;49.60
31695;DHT22;18289;51.330;4.946;2022-07-29T16:02:43;34.40;51.00
31695;DHT22;18289;51.330;4.946;2022-07-29T16:05:09;35.00;50.20
31695;DHT22;18289;51.330;4.946;2022-07-29T16:07:35;35.50;48.90
31695;DHT22;18289;51.330;4.946;2022-07-29T16:10:23;35.60;48.10